sensor_id;sensor_type;location;lat;lon;timestamp;P1;durP1;ratioP1;P2;durP2;ratioP2
25391;SDS011;13329;48.402;11.718;2023-08-17T00:00:54;6.18;;;3.92;;
25391;SDS011;13329;48.402;11.718;2023-08-17T00:03:19;6.47;;;3.93;;
25391;SDS011;13329;48.402;11.718;2023-08-17T00:05:44;5.77;;;4.10;;
25391;SDS011;13329;48.402;11.718;2023-08-17T00:08:09;6.93;;;3.83;;
25391;SDS011;13329;48.402;11.718;2023-08-17T00:10:35;9.33;;;4.37;;
25391;SDS011;13329;48.402;11.718;2023-08-17T00:13:00;4.90;;;3.72;;
25391;SDS011;13329;48.402;11.718;2023-08-17T00:15:27;9.25;;;3.95;;
25391;SDS011;13329;48.402;11.718;2023-08-17T00:17:52;9.57;;;4.87;;
25391;SDS011;13329;48.402;11.718;2023-08-17T00:20:17;6.83;;;4.60;;
25391;SDS011;13329;48.402;11.718;2023-08-17T00:22:42;6.80;;;4.50;;
25391;SDS011;13329;48.402;11.718;2023-08-17T00:25:08;9.43;;;4.82;;
25391;SDS011;13329;48.402;11.718;2023-08-17T00:27:33;8.23;;;5.20;;
25391;SDS011;13329;48.402;11.718;2023-08-17T00:29:58;5.82;;;4.25;;
25391;SDS011;13329;48.402;11.718;2023-08-17T00:32:23;9.60;;;4.40;;
25391;SDS011;13329;48.402;11.718;2023-08-17T00:34:48;7.87;;;3.93;;
25391;SDS011;13329;48.402;11.718;2023-08-17T00:37:14;5.97;;;3.70;;
25391;SDS011;13329;48.402;11.718;2023-08-17T00:39:39;5.13;;;3.90;;
25391;SDS011;13329;48.402;11.718;2023-08-17T00:42:04;5.23;;;3.73;;
25391;SDS011;13329;48.402;11.718;2023-08-17T00:44:29;5.27;;;3.53;;
25391;SDS011;13329;48.402;11.718;2023-08-17T00:46:55;6.50;;;3.50;;
25391;SDS011;13329;48.402;11.718;2023-08-17T00:49:20;4.68;;;3.35;;
25391;SDS011;13329;48.402;11.718;2023-08-17T00:51:45;9.97;;;4.80;;
25391;SDS011;13329;48.402;11.718;2023-08-17T00:54:11;9.40;;;4.80;;
25391;SDS011;13329;48.402;11.718;2023-08-17T00:56:36;10.35;;;6.05;;
25391;SDS011;13329;48.402;11.718;2023-08-17T00:59:02;6.97;;;5.05;;
25391;SDS011;13329;48.402;11.718;2023-08-17T01:01:27;11.00;;;5.30;;
25391;SDS011;13329;48.402;11.718;2023-08-17T01:03:52;7.40;;;3.97;;
25391;SDS011;13329;48.402;11.718;2023-08-17T01:06:18;6.53;;;3.50;;
25391;SDS011;13329;48.402;11.718;2023-08-17T01:08:43;4.20;;;3.33;;
25391;SDS011;13329;48.402;11.718;2023-08-17T01:16:12;5.70;;;3.75;;
25391;SDS011;13329;48.402;11.718;2023-08-17T01:18:39;5.03;;;4.00;;
25391;SDS011;13329;48.402;11.718;2023-08-17T01:21:06;5.70;;;3.85;;
25391;SDS011;13329;48.402;11.718;2023-08-17T01:23:31;6.53;;;3.97;;
25391;SDS011;13329;48.402;11.718;2023-08-17T01:25:56;5.90;;;4.10;;
25391;SDS011;13329;48.402;11.718;2023-08-17T01:28:22;5.63;;;3.85;;
25391;SDS011;13329;48.402;11.718;2023-08-17T01:33:13;11.30;;;4.77;;
25391;SDS011;13329;48.402;11.718;2023-08-17T01:35:54;7.90;;;4.45;;
25391;SDS011;13329;48.402;11.718;2023-08-17T01:38:21;6.90;;;4.63;;
25391;SDS011;13329;48.402;11.718;2023-08-17T01:40:47;7.40;;;4.43;;
25391;SDS011;13329;48.402;11.718;2023-08-17T01:43:13;10.52;;;5.22;;
25391;SDS011;13329;48.402;11.718;2023-08-17T01:45:39;10.48;;;4.80;;
25391;SDS011;13329;48.402;11.718;2023-08-17T01:48:04;10.03;;;5.17;;
25391;SDS011;13329;48.402;11.718;2023-08-17T01:50:29;8.40;;;5.28;;
25391;SDS011;13329;48.402;11.718;2023-08-17T01:52:54;7.20;;;4.93;;
25391;SDS011;13329;48.402;11.718;2023-08-17T01:55:20;6.97;;;4.77;;
25391;SDS011;13329;48.402;11.718;2023-08-17T01:57:45;6.82;;;3.20;;
25391;SDS011;13329;48.402;11.718;2023-08-17T02:00:11;6.63;;;4.10;;
25391;SDS011;13329;48.402;11.718;2023-08-17T02:02:36;6.43;;;3.95;;
25391;SDS011;13329;48.402;11.718;2023-08-17T02:05:01;5.68;;;3.90;;
25391;SDS011;13329;48.402;11.718;2023-08-17T02:07:26;5.67;;;4.00;;
25391;SDS011;13329;48.402;11.718;2023-08-17T02:09:52;5.30;;;3.77;;
25391;SDS011;13329;48.402;11.718;2023-08-17T02:12:17;9.17;;;4.40;;
25391;SDS011;13329;48.402;11.718;2023-08-17T02:14:42;6.13;;;3.87;;
25391;SDS011;13329;48.402;11.718;2023-08-17T02:17:07;7.90;;;4.00;;
25391;SDS011;13329;48.402;11.718;2023-08-17T02:19:33;8.05;;;3.97;;
25391;SDS011;13329;48.402;11.718;2023-08-17T02:21:58;6.97;;;3.90;;
25391;SDS011;13329;48.402;11.718;2023-08-17T02:24:23;7.10;;;4.55;;
25391;SDS011;13329;48.402;11.718;2023-08-17T02:26:49;8.38;;;5.20;;
25391;SDS011;13329;48.402;11.718;2023-08-17T02:29:14;7.70;;;5.23;;
25391;SDS011;13329;48.402;11.718;2023-08-17T02:31:39;8.47;;;5.97;;
25391;SDS011;13329;48.402;11.718;2023-08-17T02:34:04;10.27;;;5.73;;
25391;SDS011;13329;48.402;11.718;2023-08-17T02:36:30;9.30;;;6.35;;
25391;SDS011;13329;48.402;11.718;2023-08-17T02:38:55;10.05;;;6.70;;
25391;SDS011;13329;48.402;11.718;2023-08-17T02:41:20;10.43;;;6.87;;
25391;SDS011;13329;48.402;11.718;2023-08-17T02:43:46;14.00;;;6.93;;
25391;SDS011;13329;48.402;11.718;2023-08-17T02:46:11;12.37;;;7.27;;
25391;SDS011;13329;48.402;11.718;2023-08-17T02:48:36;11.67;;;5.80;;
25391;SDS011;13329;48.402;11.718;2023-08-17T02:51:01;6.83;;;5.10;;
25391;SDS011;13329;48.402;11.718;2023-08-17T02:53:26;8.77;;;5.30;;
25391;SDS011;13329;48.402;11.718;2023-08-17T02:55:51;8.97;;;5.03;;
25391;SDS011;13329;48.402;11.718;2023-08-17T02:58:17;6.33;;;4.30;;
25391;SDS011;13329;48.402;11.718;2023-08-17T03:00:42;7.70;;;4.65;;
25391;SDS011;13329;48.402;11.718;2023-08-17T03:03:07;5.47;;;4.00;;
25391;SDS011;13329;48.402;11.718;2023-08-17T03:05:33;6.80;;;4.30;;
25391;SDS011;13329;48.402;11.718;2023-08-17T03:07:58;8.07;;;4.93;;
25391;SDS011;13329;48.402;11.718;2023-08-17T03:10:23;10.37;;;5.60;;
25391;SDS011;13329;48.402;11.718;2023-08-17T03:12:50;9.20;;;6.03;;
25391;SDS011;13329;48.402;11.718;2023-08-17T03:15:15;11.77;;;5.93;;
25391;SDS011;13329;48.402;11.718;2023-08-17T03:17:40;10.83;;;6.60;;
25391;SDS011;13329;48.402;11.718;2023-08-17T03:20:05;8.50;;;5.63;;
25391;SDS011;13329;48.402;11.718;2023-08-17T03:22:31;8.50;;;5.75;;
25391;SDS011;13329;48.402;11.718;2023-08-17T03:24:56;9.57;;;5.82;;
25391;SDS011;13329;48.402;11.718;2023-08-17T03:27:22;10.63;;;5.53;;
25391;SDS011;13329;48.402;11.718;2023-08-17T03:29:47;8.05;;;5.32;;
25391;SDS011;13329;48.402;11.718;2023-08-17T03:32:12;7.47;;;4.60;;
25391;SDS011;13329;48.402;11.718;2023-08-17T03:34:37;7.70;;;5.10;;
25391;SDS011;13329;48.402;11.718;2023-08-17T03:37:03;6.53;;;4.70;;
25391;SDS011;13329;48.402;11.718;2023-08-17T03:39:28;7.65;;;4.97;;
25391;SDS011;13329;48.402;11.718;2023-08-17T03:41:53;6.40;;;4.73;;
25391;SDS011;13329;48.402;11.718;2023-08-17T03:44:19;6.20;;;3.93;;
25391;SDS011;13329;48.402;11.718;2023-08-17T03:46:44;5.82;;;4.03;;
25391;SDS011;13329;48.402;11.718;2023-08-17T03:49:09;8.40;;;5.10;;
25391;SDS011;13329;48.402;11.718;2023-08-17T03:51:34;9.73;;;5.30;;
25391;SDS011;13329;48.402;11.718;2023-08-17T03:53:59;10.73;;;6.40;;
25391;SDS011;13329;48.402;11.718;2023-08-17T03:56:25;10.57;;;6.72;;
25391;SDS011;13329;48.402;11.718;2023-08-17T03:58:50;10.27;;;6.80;;
25391;SDS011;13329;48.402;11.718;2023-08-17T04:01:15;9.93;;;6.75;;
25391;SDS011;13329;48.402;11.718;2023-08-17T04:03:40;7.37;;;5.00;;
25391;SDS011;13329;48.402;11.718;2023-08-17T04:06:06;11.43;;;5.20;;
25391;SDS011;13329;48.402;11.718;2023-08-17T04:08:32;12.02;;;5.03;;
25391;SDS011;13329;48.402;11.718;2023-08-17T04:10:57;7.80;;;5.03;;
25391;SDS011;13329;48.402;11.718;2023-08-17T04:13:22;8.33;;;5.17;;
25391;SDS011;13329;48.402;11.718;2023-08-17T04:15:47;7.90;;;5.03;;
25391;SDS011;13329;48.402;11.718;2023-08-17T04:18:13;9.67;;;5.07;;
25391;SDS011;13329;48.402;11.718;2023-08-17T04:20:38;6.93;;;4.70;;
25391;SDS011;13329;48.402;11.718;2023-08-17T04:23:03;11.00;;;4.77;;
25391;SDS011;13329;48.402;11.718;2023-08-17T04:25:28;6.33;;;4.27;;
25391;SDS011;13329;48.402;11.718;2023-08-17T04:27:53;10.82;;;5.28;;
25391;SDS011;13329;48.402;11.718;2023-08-17T04:30:19;7.33;;;4.70;;
25391;SDS011;13329;48.402;11.718;2023-08-17T04:32:44;7.10;;;4.40;;
25391;SDS011;13329;48.402;11.718;2023-08-17T04:35:09;9.82;;;5.20;;
25391;SDS011;13329;48.402;11.718;2023-08-17T04:37:35;7.80;;;5.28;;
25391;SDS011;13329;48.402;11.718;2023-08-17T04:40:00;8.63;;;5.53;;
25391;SDS011;13329;48.402;11.718;2023-08-17T04:42:25;10.30;;;5.33;;
25391;SDS011;13329;48.402;11.718;2023-08-17T04:44:52;6.38;;;4.72;;
25391;SDS011;13329;48.402;11.718;2023-08-17T04:47:17;7.23;;;5.03;;
25391;SDS011;13329;48.402;11.718;2023-08-17T04:49:42;8.20;;;4.90;;
25391;SDS011;13329;48.402;11.718;2023-08-17T04:52:07;10.10;;;5.20;;
25391;SDS011;13329;48.402;11.718;2023-08-17T04:54:32;6.60;;;4.40;;
25391;SDS011;13329;48.402;11.718;2023-08-17T04:56:58;7.10;;;5.07;;
25391;SDS011;13329;48.402;11.718;2023-08-17T04:59:23;10.30;;;5.43;;
25391;SDS011;13329;48.402;11.718;2023-08-17T05:01:48;7.57;;;5.53;;
25391;SDS011;13329;48.402;11.718;2023-08-17T05:04:13;10.20;;;6.00;;
25391;SDS011;13329;48.402;11.718;2023-08-17T05:06:38;10.53;;;6.47;;
25391;SDS011;13329;48.402;11.718;2023-08-17T05:09:03;8.57;;;6.73;;
25391;SDS011;13329;48.402;11.718;2023-08-17T05:11:29;9.80;;;6.47;;
25391;SDS011;13329;48.402;11.718;2023-08-17T05:13:55;12.03;;;6.90;;
25391;SDS011;13329;48.402;11.718;2023-08-17T05:16:20;10.83;;;7.03;;
25391;SDS011;13329;48.402;11.718;2023-08-17T05:18:45;19.83;;;7.13;;
25391;SDS011;13329;48.402;11.718;2023-08-17T05:21:10;11.37;;;7.40;;
25391;SDS011;13329;48.402;11.718;2023-08-17T05:23:35;13.57;;;8.20;;
25391;SDS011;13329;48.402;11.718;2023-08-17T05:26:01;12.38;;;8.07;;
25391;SDS011;13329;48.402;11.718;2023-08-17T05:28:26;10.70;;;7.37;;
25391;SDS011;13329;48.402;11.718;2023-08-17T05:30:51;17.53;;;9.00;;
25391;SDS011;13329;48.402;11.718;2023-08-17T05:33:18;13.82;;;7.90;;
25391;SDS011;13329;48.402;11.718;2023-08-17T05:35:43;14.80;;;9.17;;
25391;SDS011;13329;48.402;11.718;2023-08-17T05:38:09;17.13;;;9.15;;
25391;SDS011;13329;48.402;11.718;2023-08-17T05:40:34;13.32;;;8.30;;
25391;SDS011;13329;48.402;11.718;2023-08-17T05:43:00;14.63;;;8.07;;
25391;SDS011;13329;48.402;11.718;2023-08-17T05:45:25;20.07;;;9.00;;
25391;SDS011;13329;48.402;11.718;2023-08-17T05:47:51;16.03;;;8.50;;
25391;SDS011;13329;48.402;11.718;2023-08-17T05:50:16;13.13;;;8.10;;
25391;SDS011;13329;48.402;11.718;2023-08-17T05:52:42;11.80;;;8.57;;
25391;SDS011;13329;48.402;11.718;2023-08-17T05:55:07;20.30;;;10.23;;
25391;SDS011;13329;48.402;11.718;2023-08-17T05:57:32;18.83;;;10.68;;
25391;SDS011;13329;48.402;11.718;2023-08-17T05:59:57;18.47;;;11.90;;
25391;SDS011;13329;48.402;11.718;2023-08-17T06:02:23;20.05;;;11.60;;
25391;SDS011;13329;48.402;11.718;2023-08-17T06:04:48;15.73;;;10.57;;
25391;SDS011;13329;48.402;11.718;2023-08-17T06:07:13;20.37;;;13.53;;
25391;SDS011;13329;48.402;11.718;2023-08-17T06:09:39;16.95;;;10.82;;
25391;SDS011;13329;48.402;11.718;2023-08-17T06:12:04;21.27;;;11.97;;
25391;SDS011;13329;48.402;11.718;2023-08-17T06:14:29;24.60;;;11.65;;
25391;SDS011;13329;48.402;11.718;2023-08-17T06:16:55;19.83;;;8.88;;
25391;SDS011;13329;48.402;11.718;2023-08-17T06:19:21;21.90;;;10.73;;
25391;SDS011;13329;48.402;11.718;2023-08-17T06:21:46;14.80;;;8.97;;
25391;SDS011;13329;48.402;11.718;2023-08-17T06:24:11;14.90;;;8.80;;
25391;SDS011;13329;48.402;11.718;2023-08-17T06:26:36;15.27;;;9.30;;
25391;SDS011;13329;48.402;11.718;2023-08-17T06:29:01;17.07;;;9.00;;
25391;SDS011;13329;48.402;11.718;2023-08-17T06:31:26;13.37;;;8.50;;
25391;SDS011;13329;48.402;11.718;2023-08-17T06:33:53;12.93;;;8.23;;
25391;SDS011;13329;48.402;11.718;2023-08-17T06:36:18;12.65;;;7.80;;
25391;SDS011;13329;48.402;11.718;2023-08-17T06:38:43;10.73;;;7.43;;
25391;SDS011;13329;48.402;11.718;2023-08-17T06:41:09;13.73;;;8.73;;
25391;SDS011;13329;48.402;11.718;2023-08-17T06:43:34;12.93;;;8.60;;
25391;SDS011;13329;48.402;11.718;2023-08-17T06:45:59;14.67;;;8.27;;
25391;SDS011;13329;48.402;11.718;2023-08-17T06:48:25;15.35;;;9.02;;
25391;SDS011;13329;48.402;11.718;2023-08-17T06:50:50;16.07;;;8.87;;
25391;SDS011;13329;48.402;11.718;2023-08-17T06:53:16;13.63;;;8.70;;
25391;SDS011;13329;48.402;11.718;2023-08-17T06:55:41;15.13;;;9.33;;
25391;SDS011;13329;48.402;11.718;2023-08-17T06:58:06;16.47;;;8.80;;
25391;SDS011;13329;48.402;11.718;2023-08-17T07:00:31;19.43;;;10.07;;
25391;SDS011;13329;48.402;11.718;2023-08-17T07:02:56;13.43;;;8.77;;
25391;SDS011;13329;48.402;11.718;2023-08-17T07:05:21;28.23;;;9.13;;
25391;SDS011;13329;48.402;11.718;2023-08-17T07:07:47;12.68;;;8.45;;
25391;SDS011;13329;48.402;11.718;2023-08-17T07:10:13;14.05;;;8.90;;
25391;SDS011;13329;48.402;11.718;2023-08-17T07:12:38;11.83;;;8.13;;
25391;SDS011;13329;48.402;11.718;2023-08-17T07:15:04;9.93;;;7.47;;
25391;SDS011;13329;48.402;11.718;2023-08-17T07:17:29;13.63;;;9.13;;
25391;SDS011;13329;48.402;11.718;2023-08-17T07:19:54;12.20;;;8.23;;
25391;SDS011;13329;48.402;11.718;2023-08-17T07:22:19;14.47;;;9.00;;
25391;SDS011;13329;48.402;11.718;2023-08-17T07:24:45;13.97;;;7.43;;
25391;SDS011;13329;48.402;11.718;2023-08-17T07:27:10;14.60;;;6.53;;
25391;SDS011;13329;48.402;11.718;2023-08-17T07:29:35;9.27;;;6.83;;
25391;SDS011;13329;48.402;11.718;2023-08-17T07:32:00;8.77;;;6.28;;
25391;SDS011;13329;48.402;11.718;2023-08-17T07:34:27;10.27;;;6.57;;
25391;SDS011;13329;48.402;11.718;2023-08-17T07:36:52;10.40;;;7.20;;
25391;SDS011;13329;48.402;11.718;2023-08-17T07:39:17;9.47;;;6.77;;
25391;SDS011;13329;48.402;11.718;2023-08-17T07:41:43;10.20;;;6.10;;
25391;SDS011;13329;48.402;11.718;2023-08-17T07:44:08;9.50;;;6.37;;
25391;SDS011;13329;48.402;11.718;2023-08-17T07:46:34;8.57;;;6.00;;
25391;SDS011;13329;48.402;11.718;2023-08-17T07:48:59;12.80;;;6.70;;
25391;SDS011;13329;48.402;11.718;2023-08-17T07:51:24;8.03;;;6.03;;
25391;SDS011;13329;48.402;11.718;2023-08-17T07:53:49;10.43;;;6.30;;
25391;SDS011;13329;48.402;11.718;2023-08-17T07:56:14;11.17;;;6.33;;
25391;SDS011;13329;48.402;11.718;2023-08-17T07:58:39;8.67;;;5.90;;
25391;SDS011;13329;48.402;11.718;2023-08-17T08:01:05;10.73;;;5.33;;
25391;SDS011;13329;48.402;11.718;2023-08-17T08:03:30;6.72;;;5.25;;
25391;SDS011;13329;48.402;11.718;2023-08-17T08:05:55;5.63;;;4.43;;
25391;SDS011;13329;48.402;11.718;2023-08-17T08:08:21;8.30;;;5.07;;
25391;SDS011;13329;48.402;11.718;2023-08-17T08:10:46;6.73;;;5.07;;
25391;SDS011;13329;48.402;11.718;2023-08-17T08:13:11;6.83;;;4.40;;
25391;SDS011;13329;48.402;11.718;2023-08-17T08:15:36;7.70;;;4.60;;
25391;SDS011;13329;48.402;11.718;2023-08-17T08:18:01;8.07;;;5.50;;
25391;SDS011;13329;48.402;11.718;2023-08-17T08:20:27;8.10;;;4.60;;
25391;SDS011;13329;48.402;11.718;2023-08-17T08:22:52;6.70;;;4.10;;
25391;SDS011;13329;48.402;11.718;2023-08-17T08:25:17;5.00;;;3.80;;
25391;SDS011;13329;48.402;11.718;2023-08-17T08:27:42;6.07;;;4.67;;
25391;SDS011;13329;48.402;11.718;2023-08-17T08:30:07;7.20;;;4.88;;
25391;SDS011;13329;48.402;11.718;2023-08-17T08:32:33;7.80;;;5.33;;
25391;SDS011;13329;48.402;11.718;2023-08-17T08:34:58;9.77;;;4.97;;
25391;SDS011;13329;48.402;11.718;2023-08-17T08:37:23;9.17;;;4.43;;
25391;SDS011;13329;48.402;11.718;2023-08-17T08:39:49;8.10;;;4.22;;
25391;SDS011;13329;48.402;11.718;2023-08-17T08:42:16;9.40;;;4.65;;
25391;SDS011;13329;48.402;11.718;2023-08-17T08:44:41;8.70;;;4.65;;
25391;SDS011;13329;48.402;11.718;2023-08-17T08:47:06;9.17;;;3.87;;
25391;SDS011;13329;48.402;11.718;2023-08-17T08:49:31;11.50;;;3.90;;
25391;SDS011;13329;48.402;11.718;2023-08-17T08:51:59;5.18;;;3.42;;
25391;SDS011;13329;48.402;11.718;2023-08-17T08:54:25;4.72;;;3.78;;
25391;SDS011;13329;48.402;11.718;2023-08-17T08:56:51;6.07;;;3.90;;
25391;SDS011;13329;48.402;11.718;2023-08-17T08:59:19;5.35;;;3.58;;
25391;SDS011;13329;48.402;11.718;2023-08-17T09:01:45;6.38;;;3.90;;
25391;SDS011;13329;48.402;11.718;2023-08-17T09:04:10;6.35;;;4.03;;
25391;SDS011;13329;48.402;11.718;2023-08-17T09:06:36;5.57;;;3.40;;
25391;SDS011;13329;48.402;11.718;2023-08-17T09:09:02;10.13;;;3.85;;
25391;SDS011;13329;48.402;11.718;2023-08-17T09:11:27;9.10;;;3.55;;
25391;SDS011;13329;48.402;11.718;2023-08-17T09:13:53;7.38;;;3.70;;
25391;SDS011;13329;48.402;11.718;2023-08-17T09:16:18;6.20;;;3.80;;
25391;SDS011;13329;48.402;11.718;2023-08-17T09:18:43;6.00;;;3.53;;
25391;SDS011;13329;48.402;11.718;2023-08-17T09:21:09;6.00;;;3.97;;
25391;SDS011;13329;48.402;11.718;2023-08-17T09:23:44;7.82;;;4.28;;
25391;SDS011;13329;48.402;11.718;2023-08-17T09:26:15;6.38;;;4.38;;
25391;SDS011;13329;48.402;11.718;2023-08-17T09:28:42;8.25;;;3.92;;
25391;SDS011;13329;48.402;11.718;2023-08-17T09:31:07;4.93;;;3.70;;
25391;SDS011;13329;48.402;11.718;2023-08-17T09:33:33;4.70;;;3.47;;
25391;SDS011;13329;48.402;11.718;2023-08-17T09:35:58;5.33;;;3.67;;
25391;SDS011;13329;48.402;11.718;2023-08-17T09:38:24;5.50;;;3.80;;
25391;SDS011;13329;48.402;11.718;2023-08-17T09:40:49;5.70;;;3.67;;
25391;SDS011;13329;48.402;11.718;2023-08-17T09:43:15;6.90;;;4.03;;
25391;SDS011;13329;48.402;11.718;2023-08-17T09:45:40;5.95;;;3.63;;
25391;SDS011;13329;48.402;11.718;2023-08-17T09:48:09;5.88;;;4.03;;
25391;SDS011;13329;48.402;11.718;2023-08-17T09:50:35;8.80;;;4.40;;
25391;SDS011;13329;48.402;11.718;2023-08-17T09:53:01;6.07;;;3.75;;
25391;SDS011;13329;48.402;11.718;2023-08-17T09:55:26;7.85;;;3.78;;
25391;SDS011;13329;48.402;11.718;2023-08-17T09:57:52;4.90;;;3.70;;
25391;SDS011;13329;48.402;11.718;2023-08-17T10:00:17;8.07;;;3.72;;
25391;SDS011;13329;48.402;11.718;2023-08-17T10:02:44;5.85;;;3.80;;
25391;SDS011;13329;48.402;11.718;2023-08-17T10:05:10;5.43;;;3.45;;
25391;SDS011;13329;48.402;11.718;2023-08-17T10:07:36;4.70;;;3.88;;
25391;SDS011;13329;48.402;11.718;2023-08-17T10:10:03;4.88;;;3.65;;
25391;SDS011;13329;48.402;11.718;2023-08-17T10:12:28;5.78;;;3.35;;
25391;SDS011;13329;48.402;11.718;2023-08-17T10:14:59;8.70;;;4.57;;
25391;SDS011;13329;48.402;11.718;2023-08-17T10:17:27;5.18;;;3.55;;
25391;SDS011;13329;48.402;11.718;2023-08-17T10:19:58;7.13;;;3.92;;
25391;SDS011;13329;48.402;11.718;2023-08-17T10:22:31;6.75;;;4.22;;
25391;SDS011;13329;48.402;11.718;2023-08-17T10:24:58;6.50;;;3.90;;
25391;SDS011;13329;48.402;11.718;2023-08-17T10:27:25;4.80;;;3.22;;
25391;SDS011;13329;48.402;11.718;2023-08-17T10:29:51;6.35;;;3.67;;
25391;SDS011;13329;48.402;11.718;2023-08-17T10:32:17;7.55;;;3.33;;
25391;SDS011;13329;48.402;11.718;2023-08-17T10:34:42;7.07;;;2.80;;
25391;SDS011;13329;48.402;11.718;2023-08-17T10:37:07;5.95;;;3.65;;
25391;SDS011;13329;48.402;11.718;2023-08-17T10:39:33;5.25;;;3.03;;
25391;SDS011;13329;48.402;11.718;2023-08-17T10:41:59;5.57;;;3.67;;
25391;SDS011;13329;48.402;11.718;2023-08-17T10:44:44;7.10;;;4.53;;
25391;SDS011;13329;48.402;11.718;2023-08-17T10:47:23;6.88;;;3.72;;
25391;SDS011;13329;48.402;11.718;2023-08-17T10:49:49;6.70;;;3.80;;
25391;SDS011;13329;48.402;11.718;2023-08-17T10:52:14;4.70;;;3.63;;
25391;SDS011;13329;48.402;11.718;2023-08-17T10:54:41;5.95;;;3.92;;
25391;SDS011;13329;48.402;11.718;2023-08-17T10:58:07;6.20;;;4.10;;
25391;SDS011;13329;48.402;11.718;2023-08-17T11:00:05;7.03;;;3.10;;
25391;SDS011;13329;48.402;11.718;2023-08-17T11:02:33;5.20;;;2.95;;
25391;SDS011;13329;48.402;11.718;2023-08-17T11:04:58;3.42;;;3.00;;
25391;SDS011;13329;48.402;11.718;2023-08-17T11:07:23;4.97;;;3.27;;
25391;SDS011;13329;48.402;11.718;2023-08-17T11:09:52;5.68;;;3.47;;
25391;SDS011;13329;48.402;11.718;2023-08-17T11:12:24;5.22;;;3.60;;
25391;SDS011;13329;48.402;11.718;2023-08-17T11:14:49;5.70;;;3.20;;
25391;SDS011;13329;48.402;11.718;2023-08-17T11:17:15;6.23;;;3.60;;
25391;SDS011;13329;48.402;11.718;2023-08-17T11:19:40;7.67;;;3.53;;
25391;SDS011;13329;48.402;11.718;2023-08-17T11:22:05;4.67;;;3.20;;
25391;SDS011;13329;48.402;11.718;2023-08-17T11:24:30;5.33;;;3.50;;
25391;SDS011;13329;48.402;11.718;2023-08-17T11:26:56;3.47;;;2.80;;
25391;SDS011;13329;48.402;11.718;2023-08-17T11:29:21;5.30;;;3.58;;
25391;SDS011;13329;48.402;11.718;2023-08-17T11:31:49;3.75;;;2.95;;
25391;SDS011;13329;48.402;11.718;2023-08-17T11:34:15;4.65;;;3.38;;
25391;SDS011;13329;48.402;11.718;2023-08-17T11:36:40;3.22;;;2.80;;
25391;SDS011;13329;48.402;11.718;2023-08-17T11:39:05;4.17;;;2.87;;
25391;SDS011;13329;48.402;11.718;2023-08-17T11:41:30;8.13;;;3.10;;
25391;SDS011;13329;48.402;11.718;2023-08-17T11:43:56;4.55;;;3.15;;
25391;SDS011;13329;48.402;11.718;2023-08-17T11:46:23;4.68;;;3.28;;
25391;SDS011;13329;48.402;11.718;2023-08-17T11:48:50;3.97;;;3.00;;
25391;SDS011;13329;48.402;11.718;2023-08-17T11:51:27;10.20;;;3.95;;
25391;SDS011;13329;48.402;11.718;2023-08-17T11:53:52;5.80;;;3.50;;
25391;SDS011;13329;48.402;11.718;2023-08-17T11:56:18;10.10;;;3.37;;
25391;SDS011;13329;48.402;11.718;2023-08-17T11:58:43;6.40;;;3.40;;
25391;SDS011;13329;48.402;11.718;2023-08-17T12:01:10;7.38;;;3.22;;
25391;SDS011;13329;48.402;11.718;2023-08-17T12:03:36;5.57;;;3.35;;
25391;SDS011;13329;48.402;11.718;2023-08-17T12:06:01;5.88;;;3.50;;
25391;SDS011;13329;48.402;11.718;2023-08-17T12:08:26;5.33;;;3.53;;
25391;SDS011;13329;48.402;11.718;2023-08-17T12:10:52;5.97;;;2.97;;
25391;SDS011;13329;48.402;11.718;2023-08-17T12:13:17;5.00;;;3.40;;
25391;SDS011;13329;48.402;11.718;2023-08-17T12:15:42;4.27;;;3.30;;
25391;SDS011;13329;48.402;11.718;2023-08-17T12:18:07;5.03;;;3.13;;
25391;SDS011;13329;48.402;11.718;2023-08-17T12:20:32;5.27;;;3.03;;
25391;SDS011;13329;48.402;11.718;2023-08-17T12:23:00;3.58;;;3.05;;
25391;SDS011;13329;48.402;11.718;2023-08-17T12:25:26;5.78;;;3.03;;
25391;SDS011;13329;48.402;11.718;2023-08-17T12:27:52;4.57;;;3.17;;
25391;SDS011;13329;48.402;11.718;2023-08-17T12:30:27;8.32;;;3.20;;
25391;SDS011;13329;48.402;11.718;2023-08-17T12:32:53;3.55;;;3.00;;
25391;SDS011;13329;48.402;11.718;2023-08-17T12:35:18;4.87;;;2.93;;
25391;SDS011;13329;48.402;11.718;2023-08-17T12:37:46;10.18;;;3.58;;
25391;SDS011;13329;48.402;11.718;2023-08-17T12:40:11;4.97;;;3.37;;
25391;SDS011;13329;48.402;11.718;2023-08-17T12:42:36;3.97;;;3.00;;
25391;SDS011;13329;48.402;11.718;2023-08-17T12:45:02;5.40;;;3.57;;
25391;SDS011;13329;48.402;11.718;2023-08-17T12:47:27;5.07;;;3.37;;
25391;SDS011;13329;48.402;11.718;2023-08-17T12:49:52;4.23;;;3.10;;
25391;SDS011;13329;48.402;11.718;2023-08-17T12:52:17;4.97;;;3.37;;
25391;SDS011;13329;48.402;11.718;2023-08-17T12:54:42;4.10;;;2.80;;
25391;SDS011;13329;48.402;11.718;2023-08-17T12:57:08;4.50;;;3.27;;
25391;SDS011;13329;48.402;11.718;2023-08-17T12:59:33;4.40;;;3.08;;
25391;SDS011;13329;48.402;11.718;2023-08-17T13:01:59;11.68;;;3.35;;
25391;SDS011;13329;48.402;11.718;2023-08-17T13:04:24;6.50;;;3.33;;
25391;SDS011;13329;48.402;11.718;2023-08-17T13:06:49;10.83;;;3.53;;
25391;SDS011;13329;48.402;11.718;2023-08-17T13:09:16;4.30;;;3.22;;
25391;SDS011;13329;48.402;11.718;2023-08-17T13:11:43;4.47;;;3.17;;
25391;SDS011;13329;48.402;11.718;2023-08-17T13:14:08;11.03;;;3.30;;
25391;SDS011;13329;48.402;11.718;2023-08-17T13:16:33;7.73;;;3.30;;
25391;SDS011;13329;48.402;11.718;2023-08-17T13:18:58;5.33;;;3.53;;
25391;SDS011;13329;48.402;11.718;2023-08-17T13:21:23;4.90;;;3.40;;
25391;SDS011;13329;48.402;11.718;2023-08-17T13:23:48;4.03;;;2.90;;
25391;SDS011;13329;48.402;11.718;2023-08-17T13:26:13;6.37;;;3.50;;
25391;SDS011;13329;48.402;11.718;2023-08-17T13:28:39;4.07;;;2.90;;
25391;SDS011;13329;48.402;11.718;2023-08-17T13:31:04;4.87;;;2.90;;
25391;SDS011;13329;48.402;11.718;2023-08-17T13:33:29;3.33;;;2.57;;
25391;SDS011;13329;48.402;11.718;2023-08-17T13:35:54;3.87;;;3.00;;
25391;SDS011;13329;48.402;11.718;2023-08-17T13:38:19;3.78;;;2.90;;
25391;SDS011;13329;48.402;11.718;2023-08-17T13:40:45;4.57;;;2.90;;
25391;SDS011;13329;48.402;11.718;2023-08-17T13:43:10;3.97;;;2.63;;
25391;SDS011;13329;48.402;11.718;2023-08-17T13:45:41;3.83;;;2.78;;
25391;SDS011;13329;48.402;11.718;2023-08-17T13:48:07;3.67;;;2.78;;
25391;SDS011;13329;48.402;11.718;2023-08-17T13:50:32;4.10;;;2.50;;
25391;SDS011;13329;48.402;11.718;2023-08-17T13:52:58;5.90;;;3.55;;
25391;SDS011;13329;48.402;11.718;2023-08-17T13:55:25;5.75;;;2.97;;
25391;SDS011;13329;48.402;11.718;2023-08-17T13:57:50;14.27;;;3.20;;
25391;SDS011;13329;48.402;11.718;2023-08-17T14:00:17;3.53;;;2.75;;
25391;SDS011;13329;48.402;11.718;2023-08-17T14:02:42;6.20;;;3.10;;
25391;SDS011;13329;48.402;11.718;2023-08-17T14:05:08;4.33;;;2.87;;
25391;SDS011;13329;48.402;11.718;2023-08-17T14:07:33;4.77;;;2.90;;
25391;SDS011;13329;48.402;11.718;2023-08-17T14:09:58;8.20;;;3.53;;
25391;SDS011;13329;48.402;11.718;2023-08-17T14:12:23;2.97;;;2.67;;
25391;SDS011;13329;48.402;11.718;2023-08-17T14:14:48;4.82;;;3.33;;
25391;SDS011;13329;48.402;11.718;2023-08-17T14:17:13;6.37;;;3.13;;
25391;SDS011;13329;48.402;11.718;2023-08-17T14:19:39;6.30;;;3.70;;
25391;SDS011;13329;48.402;11.718;2023-08-17T14:22:04;6.50;;;2.67;;
25391;SDS011;13329;48.402;11.718;2023-08-17T14:24:29;3.63;;;2.90;;
25391;SDS011;13329;48.402;11.718;2023-08-17T14:26:54;3.77;;;2.90;;
25391;SDS011;13329;48.402;11.718;2023-08-17T14:29:21;4.35;;;3.08;;